Garoga, New York
Current Conditions -  °F | °C
As of 2:55 AM on Saturday 20 Dec 2014 (Local Time) from KNY0 Reporting Station
Clear Clear  
Wind Chill:   Ceiling: Unl
Heat Index: 17°   Visibility: 10mi
Dew Point: 13°   Wind: 5mph
Humidity: 86%   Direction: 280°W
Pressure: 30.2"   Gusts: NA
Location:  43.0176°N, 74.3982°W
Report Text: KNY0 200755Z AUTO 28004KT 10SM CLR M09/M11 A3020 RMK AO2 T10861106
Loading
Personal Weather Stations






























Interactive Weather Map New forecast layout! Learn more

10-Day Weather Forecast

Advertisements
Track Severe Weather on mobile